sensor_id;sensor_type;location;lat;lon;timestamp;pressure;altitude;pressure_sealevel;temperature;humidity
11648;BME280;5880;52.342;9.662;2023-02-20T00:01:26;101691.81;;;10.75;56.23
11648;BME280;5880;52.342;9.662;2023-02-20T00:03:52;101702.13;;;10.80;56.29
11648;BME280;5880;52.342;9.662;2023-02-20T00:06:18;101705.69;;;10.81;56.31
11648;BME280;5880;52.342;9.662;2023-02-20T00:08:43;101701.28;;;10.80;56.38
11648;BME280;5880;52.342;9.662;2023-02-20T00:11:09;101693.28;;;10.85;56.55
11648;BME280;5880;52.342;9.662;2023-02-20T00:13:35;101684.84;;;10.86;56.16
11648;BME280;5880;52.342;9.662;2023-02-20T00:16:00;101690.13;;;10.88;56.42
11648;BME280;5880;52.342;9.662;2023-02-20T00:18:26;101691.59;;;10.90;56.20
11648;BME280;5880;52.342;9.662;2023-02-20T00:20:52;101676.66;;;10.93;56.34
11648;BME280;5880;52.342;9.662;2023-02-20T00:23:17;101684.66;;;10.94;56.40
11648;BME280;5880;52.342;9.662;2023-02-20T00:25:43;101676.03;;;10.91;56.23
11648;BME280;5880;52.342;9.662;2023-02-20T00:28:08;101670.78;;;10.96;56.21
11648;BME280;5880;52.342;9.662;2023-02-20T00:30:34;101668.25;;;10.94;56.34
11648;BME280;5880;52.342;9.662;2023-02-20T00:33:00;101665.97;;;10.98;56.35
11648;BME280;5880;52.342;9.662;2023-02-20T00:35:26;101662.16;;;10.99;56.13
11648;BME280;5880;52.342;9.662;2023-02-20T00:37:54;101657.53;;;10.99;56.25
11648;BME280;5880;52.342;9.662;2023-02-20T00:40:23;101651.00;;;11.01;56.36
11648;BME280;5880;52.342;9.662;2023-02-20T00:42:49;101635.00;;;10.97;55.94
11648;BME280;5880;52.342;9.662;2023-02-20T00:45:16;101646.38;;;11.01;56.04
11648;BME280;5880;52.342;9.662;2023-02-20T00:47:43;101629.13;;;11.01;55.96
11648;BME280;5880;52.342;9.662;2023-02-20T00:50:09;101640.06;;;11.01;56.31
11648;BME280;5880;52.342;9.662;2023-02-20T00:52:37;101635.00;;;10.97;56.18
11648;BME280;5880;52.342;9.662;2023-02-20T00:55:04;101632.69;;;11.01;56.14
11648;BME280;5880;52.342;9.662;2023-02-20T00:57:30;101626.41;;;11.01;55.98
11648;BME280;5880;52.342;9.662;2023-02-20T00:59:56;101626.59;;;10.99;55.90
11648;BME280;5880;52.342;9.662;2023-02-20T01:02:22;101629.53;;;10.97;56.20
11648;BME280;5880;52.342;9.662;2023-02-20T01:04:47;101612.47;;;10.95;55.98
11648;BME280;5880;52.342;9.662;2023-02-20T01:07:13;101616.28;;;10.94;55.76
11648;BME280;5880;52.342;9.662;2023-02-20T01:09:39;101620.91;;;10.94;56.11
11648;BME280;5880;52.342;9.662;2023-02-20T01:12:04;101618.81;;;10.96;55.93
11648;BME280;5880;52.342;9.662;2023-02-20T01:14:30;101622.19;;;10.98;56.19
11648;BME280;5880;52.342;9.662;2023-02-20T01:16:57;101616.72;;;10.98;55.81
11648;BME280;5880;52.342;9.662;2023-02-20T01:19:23;101614.81;;;10.98;55.79
11648;BME280;5880;52.342;9.662;2023-02-20T01:21:50;101617.31;;;11.00;56.15
11648;BME280;5880;52.342;9.662;2023-02-20T01:24:16;101610.19;;;10.99;55.96
11648;BME280;5880;52.342;9.662;2023-02-20T01:26:45;101598.41;;;10.98;56.11
11648;BME280;5880;52.342;9.662;2023-02-20T01:29:11;101592.94;;;10.98;55.80
11648;BME280;5880;52.342;9.662;2023-02-20T01:31:37;101594.84;;;10.98;55.79
11648;BME280;5880;52.342;9.662;2023-02-20T01:34:04;101584.94;;;10.97;55.85
11648;BME280;5880;52.342;9.662;2023-02-20T01:36:30;101583.88;;;10.98;56.07
11648;BME280;5880;52.342;9.662;2023-02-20T01:38:55;101581.16;;;10.98;55.82
11648;BME280;5880;52.342;9.662;2023-02-20T01:41:23;101570.63;;;10.95;55.80
11648;BME280;5880;52.342;9.662;2023-02-20T01:43:49;101553.38;;;10.94;55.96
11648;BME280;5880;52.342;9.662;2023-02-20T01:49:08;101555.03;;;10.95;55.74
11648;BME280;5880;52.342;9.662;2023-02-20T01:51:46;101541.78;;;10.92;55.94
11648;BME280;5880;52.342;9.662;2023-02-20T01:54:17;101541.78;;;10.92;55.70
11648;BME280;5880;52.342;9.662;2023-02-20T01:56:47;101547.47;;;10.91;55.99
11648;BME280;5880;52.342;9.662;2023-02-20T01:59:15;101544.13;;;10.89;55.67
11648;BME280;5880;52.342;9.662;2023-02-20T02:01:41;101529.81;;;10.87;56.03
11648;BME280;5880;52.342;9.662;2023-02-20T02:04:10;101527.09;;;10.87;55.90
11648;BME280;5880;52.342;9.662;2023-02-20T02:06:43;101517.41;;;10.84;55.87
11648;BME280;5880;52.342;9.662;2023-02-20T02:09:22;101516.78;;;10.82;55.75
11648;BME280;5880;52.342;9.662;2023-02-20T02:11:51;101524.56;;;10.78;55.60
11648;BME280;5880;52.342;9.662;2023-02-20T02:14:17;101505.00;;;10.75;55.64
11648;BME280;5880;52.342;9.662;2023-02-20T02:20:47;101503.75;;;10.64;55.69
11648;BME280;5880;52.342;9.662;2023-02-20T02:33:33;101471.81;;;10.45;55.69
11648;BME280;5880;52.342;9.662;2023-02-20T02:42:35;101467.16;;;10.39;55.86
11648;BME280;5880;52.342;9.662;2023-02-20T02:45:37;101452.25;;;10.34;56.00
11648;BME280;5880;52.342;9.662;2023-02-20T02:48:16;101448.66;;;10.34;55.80
11648;BME280;5880;52.342;9.662;2023-02-20T02:50:46;101443.22;;;10.34;55.87
11648;BME280;5880;52.342;9.662;2023-02-20T02:53:14;101435.00;;;10.34;55.91
11648;BME280;5880;52.342;9.662;2023-02-20T02:55:40;101441.94;;;10.37;55.92
11648;BME280;5880;52.342;9.662;2023-02-20T02:58:07;101434.16;;;10.33;56.10
11648;BME280;5880;52.342;9.662;2023-02-20T03:00:55;101435.63;;;10.43;56.18
11648;BME280;5880;52.342;9.662;2023-02-20T03:03:31;101420.50;;;10.40;56.27
11648;BME280;5880;52.342;9.662;2023-02-20T03:06:17;101432.06;;;10.49;56.21
11648;BME280;5880;52.342;9.662;2023-02-20T03:08:57;101425.34;;;10.51;56.11
11648;BME280;5880;52.342;9.662;2023-02-20T03:11:29;101418.81;;;10.52;56.49
11648;BME280;5880;52.342;9.662;2023-02-20T03:14:05;101421.75;;;10.57;56.24
11648;BME280;5880;52.342;9.662;2023-02-20T03:19:57;101408.91;;;10.58;56.31
11648;BME280;5880;52.342;9.662;2023-02-20T03:22:39;101402.59;;;10.57;56.25
11648;BME280;5880;52.342;9.662;2023-02-20T03:25:33;101415.44;;;10.64;56.44
11648;BME280;5880;52.342;9.662;2023-02-20T03:28:06;101419.81;;;10.65;56.44
11648;BME280;5880;52.342;9.662;2023-02-20T03:30:44;101412.25;;;10.67;56.34
11648;BME280;5880;52.342;9.662;2023-02-20T03:33:19;101412.06;;;10.68;56.38
11648;BME280;5880;52.342;9.662;2023-02-20T03:36:09;101398.16;;;10.70;56.74
11648;BME280;5880;52.342;9.662;2023-02-20T03:39:07;101391.44;;;10.72;56.50
11648;BME280;5880;52.342;9.662;2023-02-20T03:41:55;101373.13;;;10.73;56.71
11648;BME280;5880;52.342;9.662;2023-02-20T03:44:42;101357.13;;;10.76;56.84
11648;BME280;5880;52.342;9.662;2023-02-20T03:47:12;101375.63;;;10.81;56.82
11648;BME280;5880;52.342;9.662;2023-02-20T03:49:42;101389.47;;;10.86;56.46
11648;BME280;5880;52.342;9.662;2023-02-20T03:52:27;101386.53;;;10.88;56.69
11648;BME280;5880;52.342;9.662;2023-02-20T03:54:53;101380.63;;;10.91;56.61
11648;BME280;5880;52.342;9.662;2023-02-20T03:57:26;101382.13;;;10.93;56.45
11648;BME280;5880;52.342;9.662;2023-02-20T04:00:05;101386.31;;;10.96;56.25
11648;BME280;5880;52.342;9.662;2023-02-20T04:02:42;101370.94;;;10.95;56.27
11648;BME280;5880;52.342;9.662;2023-02-20T04:05:20;101363.97;;;10.99;56.28
11648;BME280;5880;52.342;9.662;2023-02-20T04:08:00;101369.25;;;11.01;56.55
11648;BME280;5880;52.342;9.662;2023-02-20T04:10:34;101372.56;;;11.03;56.53
11648;BME280;5880;52.342;9.662;2023-02-20T04:13:03;101358.06;;;11.02;56.59
11648;BME280;5880;52.342;9.662;2023-02-20T04:15:31;101340.16;;;11.06;56.47
11648;BME280;5880;52.342;9.662;2023-02-20T04:18:07;101337.63;;;11.11;56.36
11648;BME280;5880;52.342;9.662;2023-02-20T04:20:34;101330.22;;;11.12;56.71
11648;BME280;5880;52.342;9.662;2023-02-20T04:23:09;101348.97;;;11.15;56.56
11648;BME280;5880;52.342;9.662;2023-02-20T04:28:11;101334.63;;;11.19;56.78
11648;BME280;5880;52.342;9.662;2023-02-20T04:30:37;101319.88;;;11.20;56.58
11648;BME280;5880;52.342;9.662;2023-02-20T04:33:04;101311.22;;;11.24;56.36
11648;BME280;5880;52.342;9.662;2023-02-20T04:35:30;101292.94;;;11.24;56.36
11648;BME280;5880;52.342;9.662;2023-02-20T04:37:55;101269.13;;;11.25;56.27
11648;BME280;5880;52.342;9.662;2023-02-20T04:40:23;101274.41;;;11.26;56.44
11648;BME280;5880;52.342;9.662;2023-02-20T04:42:49;101266.19;;;11.26;56.26
11648;BME280;5880;52.342;9.662;2023-02-20T04:45:15;101254.38;;;11.26;56.41
11648;BME280;5880;52.342;9.662;2023-02-20T04:47:45;101259.03;;;11.25;56.23
11648;BME280;5880;52.342;9.662;2023-02-20T04:50:28;101271.88;;;11.25;56.21
11648;BME280;5880;52.342;9.662;2023-02-20T04:52:54;101275.66;;;11.24;56.52
11648;BME280;5880;52.342;9.662;2023-02-20T04:55:20;101266.41;;;11.25;56.15
11648;BME280;5880;52.342;9.662;2023-02-20T04:57:47;101273.53;;;11.26;56.24
11648;BME280;5880;52.342;9.662;2023-02-20T05:00:15;101267.91;;;11.20;56.49
11648;BME280;5880;52.342;9.662;2023-02-20T05:02:42;101268.94;;;11.26;56.28
11648;BME280;5880;52.342;9.662;2023-02-20T05:05:25;101271.41;;;11.28;56.54
11648;BME280;5880;52.342;9.662;2023-02-20T05:07:57;101278.81;;;11.27;56.57
11648;BME280;5880;52.342;9.662;2023-02-20T05:10:24;101274.16;;;11.28;56.47
11648;BME280;5880;52.342;9.662;2023-02-20T05:12:50;101269.50;;;11.28;56.63
11648;BME280;5880;52.342;9.662;2023-02-20T05:15:17;101264.91;;;11.29;56.53
11648;BME280;5880;52.342;9.662;2023-02-20T05:17:43;101254.78;;;11.29;56.51
11648;BME280;5880;52.342;9.662;2023-02-20T05:20:10;101248.19;;;11.37;56.41
11648;BME280;5880;52.342;9.662;2023-02-20T05:22:36;101262.50;;;11.39;56.55
11648;BME280;5880;52.342;9.662;2023-02-20T05:25:03;101264.78;;;11.42;56.40
11648;BME280;5880;52.342;9.662;2023-02-20T05:27:29;101264.56;;;11.44;56.48
11648;BME280;5880;52.342;9.662;2023-02-20T05:29:59;101266.25;;;11.45;56.54
11648;BME280;5880;52.342;9.662;2023-02-20T05:32:28;101265.19;;;11.46;56.24
11648;BME280;5880;52.342;9.662;2023-02-20T05:34:54;101266.84;;;11.47;56.21
11648;BME280;5880;52.342;9.662;2023-02-20T05:37:22;101251.28;;;11.47;56.38
11648;BME280;5880;52.342;9.662;2023-02-20T05:39:48;101255.91;;;11.47;56.53
11648;BME280;5880;52.342;9.662;2023-02-20T05:42:15;101236.75;;;11.47;56.17
11648;BME280;5880;52.342;9.662;2023-02-20T05:44:41;101239.47;;;11.47;56.10
11648;BME280;5880;52.342;9.662;2023-02-20T05:47:07;101227.69;;;11.46;56.29
11648;BME280;5880;52.342;9.662;2023-02-20T05:49:34;101226.88;;;11.46;56.04
11648;BME280;5880;52.342;9.662;2023-02-20T05:52:03;101227.69;;;11.46;56.29
11648;BME280;5880;52.342;9.662;2023-02-20T05:54:39;101221.41;;;11.46;56.11
11648;BME280;5880;52.342;9.662;2023-02-20T05:57:06;101217.81;;;11.45;56.34
11648;BME280;5880;52.342;9.662;2023-02-20T05:59:32;101212.97;;;11.47;56.19
11648;BME280;5880;52.342;9.662;2023-02-20T06:01:59;101216.53;;;11.48;56.19
11648;BME280;5880;52.342;9.662;2023-02-20T06:04:25;101212.97;;;11.47;56.18
11648;BME280;5880;52.342;9.662;2023-02-20T06:06:51;101211.06;;;11.48;56.34
11648;BME280;5880;52.342;9.662;2023-02-20T06:09:17;101200.94;;;11.48;56.25
11648;BME280;5880;52.342;9.662;2023-02-20T06:11:52;101194.41;;;11.49;56.36
11648;BME280;5880;52.342;9.662;2023-02-20T06:14:20;101192.28;;;11.51;56.03
11648;BME280;5880;52.342;9.662;2023-02-20T06:16:46;101183.22;;;11.51;56.21
11648;BME280;5880;52.342;9.662;2023-02-20T06:19:22;101199.44;;;11.52;56.27
11648;BME280;5880;52.342;9.662;2023-02-20T06:21:51;101190.38;;;11.52;56.12
11648;BME280;5880;52.342;9.662;2023-02-20T06:24:19;101200.06;;;11.54;56.23
11648;BME280;5880;52.342;9.662;2023-02-20T06:26:45;101195.41;;;11.55;56.35
11648;BME280;5880;52.342;9.662;2023-02-20T06:29:14;101200.06;;;11.54;56.21
11648;BME280;5880;52.342;9.662;2023-02-20T06:31:40;101197.91;;;11.56;56.36
11648;BME280;5880;52.342;9.662;2023-02-20T06:34:07;101207.81;;;11.57;56.26
11648;BME280;5880;52.342;9.662;2023-02-20T06:36:36;101208.66;;;11.58;55.99
11648;BME280;5880;52.342;9.662;2023-02-20T06:39:05;101205.91;;;11.58;56.09
11648;BME280;5880;52.342;9.662;2023-02-20T06:41:31;101207.59;;;11.59;56.10
11648;BME280;5880;52.342;9.662;2023-02-20T06:43:57;101202.97;;;11.59;56.12
11648;BME280;5880;52.342;9.662;2023-02-20T06:46:23;101198.31;;;11.60;56.09
11648;BME280;5880;52.342;9.662;2023-02-20T06:48:53;101215.56;;;11.60;56.33
11648;BME280;5880;52.342;9.662;2023-02-20T06:51:25;101213.66;;;11.61;55.72
11648;BME280;5880;52.342;9.662;2023-02-20T06:53:51;101208.44;;;11.59;56.00
11648;BME280;5880;52.342;9.662;2023-02-20T06:56:22;101222.94;;;11.60;55.96
11648;BME280;5880;52.342;9.662;2023-02-20T06:58:50;101218.56;;;11.59;56.30
11648;BME280;5880;52.342;9.662;2023-02-20T07:01:18;101223.16;;;11.58;56.30
11648;BME280;5880;52.342;9.662;2023-02-20T07:03:46;101234.97;;;11.59;56.29
11648;BME280;5880;52.342;9.662;2023-02-20T07:06:14;101236.84;;;11.58;56.31
11648;BME280;5880;52.342;9.662;2023-02-20T07:08:40;101233.91;;;11.60;55.89
11648;BME280;5880;52.342;9.662;2023-02-20T07:11:06;101228.63;;;11.58;56.14
11648;BME280;5880;52.342;9.662;2023-02-20T07:13:31;101236.84;;;11.58;55.80
11648;BME280;5880;52.342;9.662;2023-02-20T07:15:57;101213.50;;;11.56;56.13
11648;BME280;5880;52.342;9.662;2023-02-20T07:18:23;101215.56;;;11.60;55.71
11648;BME280;5880;52.342;9.662;2023-02-20T07:20:57;101216.41;;;11.61;55.96
11648;BME280;5880;52.342;9.662;2023-02-20T07:23:23;101211.16;;;11.59;56.09
11648;BME280;5880;52.342;9.662;2023-02-20T07:25:49;101207.34;;;11.60;55.81
11648;BME280;5880;52.342;9.662;2023-02-20T07:28:18;101203.78;;;11.60;55.96
11648;BME280;5880;52.342;9.662;2023-02-20T07:30:45;101199.97;;;11.61;55.94
11648;BME280;5880;52.342;9.662;2023-02-20T07:33:14;101197.22;;;11.61;55.78
11648;BME280;5880;52.342;9.662;2023-02-20T07:35:40;101190.09;;;11.60;56.05
11648;BME280;5880;52.342;9.662;2023-02-20T07:38:06;101188.44;;;11.59;55.75
11648;BME280;5880;52.342;9.662;2023-02-20T07:40:32;101194.13;;;11.57;56.08
11648;BME280;5880;52.342;9.662;2023-02-20T07:42:58;101187.16;;;11.61;56.06
11648;BME280;5880;52.342;9.662;2023-02-20T07:45:24;101205.22;;;11.62;55.85
11648;BME280;5880;52.342;9.662;2023-02-20T07:47:50;101207.50;;;11.66;55.93
11648;BME280;5880;52.342;9.662;2023-02-20T07:50:17;101202.03;;;11.66;56.06
11648;BME280;5880;52.342;9.662;2023-02-20T07:52:44;101203.13;;;11.65;56.17
11648;BME280;5880;52.342;9.662;2023-02-20T07:55:17;101199.53;;;11.64;55.92
11648;BME280;5880;52.342;9.662;2023-02-20T07:57:47;101217.56;;;11.72;55.78
11648;BME280;5880;52.342;9.662;2023-02-20T08:00:18;101209.16;;;11.73;55.89
11648;BME280;5880;52.342;9.662;2023-02-20T08:02:44;101211.88;;;11.73;55.71
11648;BME280;5880;52.342;9.662;2023-02-20T08:05:11;101214.38;;;11.75;55.82
11648;BME280;5880;52.342;9.662;2023-02-20T08:07:37;101219.44;;;11.78;56.07
11648;BME280;5880;52.342;9.662;2023-02-20T08:10:04;101220.25;;;11.78;55.94
11648;BME280;5880;52.342;9.662;2023-02-20T08:12:30;101200.69;;;11.75;55.94
11648;BME280;5880;52.342;9.662;2023-02-20T08:14:56;101207.19;;;11.80;56.08
11648;BME280;5880;52.342;9.662;2023-02-20T08:17:21;101198.50;;;11.83;55.71
11648;BME280;5880;52.342;9.662;2023-02-20T08:19:47;101202.06;;;11.84;55.55
11648;BME280;5880;52.342;9.662;2023-02-20T08:22:13;101199.09;;;11.86;55.78
11648;BME280;5880;52.342;9.662;2023-02-20T08:24:38;101204.41;;;11.87;56.18
11648;BME280;5880;52.342;9.662;2023-02-20T08:27:04;101197.63;;;11.90;55.76
11648;BME280;5880;52.342;9.662;2023-02-20T08:29:30;101189.16;;;11.91;55.78
11648;BME280;5880;52.342;9.662;2023-02-20T08:31:55;101194.66;;;11.91;55.95
11648;BME280;5880;52.342;9.662;2023-02-20T08:34:21;101188.97;;;11.86;55.81
11648;BME280;5880;52.342;9.662;2023-02-20T08:36:47;101182.38;;;11.94;56.13
11648;BME280;5880;52.342;9.662;2023-02-20T08:39:12;101192.09;;;11.96;55.91
11648;BME280;5880;52.342;9.662;2023-02-20T08:41:45;101175.78;;;12.01;55.84
11648;BME280;5880;52.342;9.662;2023-02-20T08:44:12;101189.03;;;12.04;55.96
11648;BME280;5880;52.342;9.662;2023-02-20T08:46:49;101177.38;;;12.09;56.24
11648;BME280;5880;52.342;9.662;2023-02-20T08:49:16;101175.72;;;12.08;56.18
11648;BME280;5880;52.342;9.662;2023-02-20T08:51:44;101182.31;;;12.19;56.15
11648;BME280;5880;52.342;9.662;2023-02-20T08:54:11;101186.06;;;12.24;56.05
11648;BME280;5880;52.342;9.662;2023-02-20T08:56:37;101172.72;;;12.28;56.09
11648;BME280;5880;52.342;9.662;2023-02-20T08:59:02;101182.78;;;12.34;56.14
11648;BME280;5880;52.342;9.662;2023-02-20T09:01:28;101184.22;;;12.37;55.95
11648;BME280;5880;52.342;9.662;2023-02-20T09:03:54;101178.03;;;12.41;55.94
11648;BME280;5880;52.342;9.662;2023-02-20T09:06:20;101187.22;;;12.47;56.14
11648;BME280;5880;52.342;9.662;2023-02-20T09:08:49;101173.91;;;12.51;56.00
11648;BME280;5880;52.342;9.662;2023-02-20T09:11:14;101181.19;;;12.57;56.18
11648;BME280;5880;52.342;9.662;2023-02-20T09:13:42;101163.22;;;12.61;56.02
11648;BME280;5880;52.342;9.662;2023-02-20T09:16:08;101172.53;;;12.60;55.89
11648;BME280;5880;52.342;9.662;2023-02-20T09:18:34;101175.00;;;12.61;55.71
11648;BME280;5880;52.342;9.662;2023-02-20T09:21:00;101166.91;;;12.66;55.49
11648;BME280;5880;52.342;9.662;2023-02-20T09:23:25;101166.09;;;12.66;55.53
11648;BME280;5880;52.342;9.662;2023-02-20T09:25:51;101151.19;;;12.62;55.50
11648;BME280;5880;52.342;9.662;2023-02-20T09:28:18;101165.47;;;12.64;55.63
11648;BME280;5880;52.342;9.662;2023-02-20T09:30:44;101158.94;;;12.65;55.55
11648;BME280;5880;52.342;9.662;2023-02-20T09:33:10;101148.19;;;12.63;55.66
11648;BME280;5880;52.342;9.662;2023-02-20T09:35:35;101142.97;;;12.62;55.55
11648;BME280;5880;52.342;9.662;2023-02-20T09:38:01;101127.22;;;12.57;55.82
11648;BME280;5880;52.342;9.662;2023-02-20T09:40:30;101134.97;;;12.60;55.71
11648;BME280;5880;52.342;9.662;2023-02-20T09:46:25;101134.97;;;12.60;55.77
11648;BME280;5880;52.342;9.662;2023-02-20T09:49:25;101114.34;;;12.58;55.70
11648;BME280;5880;52.342;9.662;2023-02-20T09:52:03;101118.13;;;12.57;56.00
11648;BME280;5880;52.342;9.662;2023-02-20T09:54:35;101110.28;;;12.60;55.96
11648;BME280;5880;52.342;9.662;2023-02-20T09:57:09;101118.03;;;12.63;56.05
11648;BME280;5880;52.342;9.662;2023-02-20T09:59:50;101107.06;;;12.63;55.99
11648;BME280;5880;52.342;9.662;2023-02-20T10:02:39;101100.16;;;12.61;56.09
11648;BME280;5880;52.342;9.662;2023-02-20T10:05:21;101101.44;;;12.58;55.78
11648;BME280;5880;52.342;9.662;2023-02-20T10:07:49;101103.59;;;12.56;56.07
11648;BME280;5880;52.342;9.662;2023-02-20T10:13:26;101101.69;;;12.57;55.83
11648;BME280;5880;52.342;9.662;2023-02-20T10:16:31;101100.00;;;12.56;55.99
11648;BME280;5880;52.342;9.662;2023-02-20T10:19:35;101092.25;;;12.53;56.02
11648;BME280;5880;52.342;9.662;2023-02-20T10:22:32;101092.25;;;12.53;56.19
11648;BME280;5880;52.342;9.662;2023-02-20T10:25:24;101092.50;;;12.51;56.20
11648;BME280;5880;52.342;9.662;2023-02-20T10:28:10;101094.41;;;12.51;56.27
11648;BME280;5880;52.342;9.662;2023-02-20T10:30:45;101097.97;;;12.51;56.30
11648;BME280;5880;52.342;9.662;2023-02-20T10:33:32;101091.66;;;12.51;56.21
11648;BME280;5880;52.342;9.662;2023-02-20T10:36:24;101105.97;;;12.53;56.26
11648;BME280;5880;52.342;9.662;2023-02-20T10:39:08;101103.81;;;12.55;56.08
11648;BME280;5880;52.342;9.662;2023-02-20T10:42:01;101107.41;;;12.55;56.32
11648;BME280;5880;52.342;9.662;2023-02-20T10:45:13;101100.00;;;12.56;56.27
11648;BME280;5880;52.342;9.662;2023-02-20T10:48:00;101108.25;;;12.56;56.07
11648;BME280;5880;52.342;9.662;2023-02-20T10:50:49;101113.50;;;12.57;56.24
11648;BME280;5880;52.342;9.662;2023-02-20T10:53:48;101120.88;;;12.57;56.39
11648;BME280;5880;52.342;9.662;2023-02-20T10:56:29;101110.97;;;12.56;56.31
11648;BME280;5880;52.342;9.662;2023-02-20T10:59:12;101110.97;;;12.56;56.31
11648;BME280;5880;52.342;9.662;2023-02-20T11:01:44;101112.91;;;12.55;56.42
11648;BME280;5880;52.342;9.662;2023-02-20T11:04:27;101110.97;;;12.56;56.09
11648;BME280;5880;52.342;9.662;2023-02-20T11:07:03;101120.03;;;12.56;56.21
11648;BME280;5880;52.342;9.662;2023-02-20T11:09:30;101106.19;;;12.51;56.54
11648;BME280;5880;52.342;9.662;2023-02-20T11:11:56;101125.53;;;12.56;56.30
11648;BME280;5880;52.342;9.662;2023-02-20T11:14:40;101123.16;;;12.60;56.55
11648;BME280;5880;52.342;9.662;2023-02-20T11:17:14;101123.16;;;12.60;56.61
11648;BME280;5880;52.342;9.662;2023-02-20T11:19:47;101136.88;;;12.60;56.49
11648;BME280;5880;52.342;9.662;2023-02-20T11:22:16;101132.91;;;12.56;56.38
11648;BME280;5880;52.342;9.662;2023-02-20T11:24:46;101143.41;;;12.59;56.34
11648;BME280;5880;52.342;9.662;2023-02-20T11:27:22;101148.91;;;12.59;56.20
11648;BME280;5880;52.342;9.662;2023-02-20T11:30:15;101140.06;;;12.57;56.41
11648;BME280;5880;52.342;9.662;2023-02-20T11:32:47;101130.66;;;12.53;56.41
11648;BME280;5880;52.342;9.662;2023-02-20T11:37:46;101110.59;;;12.52;56.49
11648;BME280;5880;52.342;9.662;2023-02-20T11:40:24;101111.22;;;12.54;56.31
11648;BME280;5880;52.342;9.662;2023-02-20T11:42:51;101107.03;;;12.52;56.55
11648;BME280;5880;52.342;9.662;2023-02-20T11:45:28;101104.28;;;12.52;56.25
11648;BME280;5880;52.342;9.662;2023-02-20T11:48:14;101110.84;;;12.51;56.23
11648;BME280;5880;52.342;9.662;2023-02-20T11:50:45;101105.81;;;12.48;56.42
11648;BME280;5880;52.342;9.662;2023-02-20T11:53:24;101101.19;;;12.48;56.34
11648;BME280;5880;52.342;9.662;2023-02-20T11:58:37;101089.00;;;12.44;56.59
11648;BME280;5880;52.342;9.662;2023-02-20T12:01:04;101080.56;;;12.45;56.42
11648;BME280;5880;52.342;9.662;2023-02-20T12:03:35;101078.03;;;12.44;56.65
11648;BME280;5880;52.342;9.662;2023-02-20T12:06:32;101078.03;;;12.44;56.64
11648;BME280;5880;52.342;9.662;2023-02-20T12:09:06;101078.53;;;12.41;56.81
11648;BME280;5880;52.342;9.662;2023-02-20T12:11:36;101079.34;;;12.41;56.75
11648;BME280;5880;52.342;9.662;2023-02-20T12:14:05;101090.91;;;12.43;56.82
11648;BME280;5880;52.342;9.662;2023-02-20T12:16:49;101072.34;;;12.45;56.63
11648;BME280;5880;52.342;9.662;2023-02-20T12:19:53;101077.22;;;12.43;56.77
11648;BME280;5880;52.342;9.662;2023-02-20T12:22:37;101089.72;;;12.39;56.50
11648;BME280;5880;52.342;9.662;2023-02-20T12:25:46;101116.66;;;12.42;57.04
11648;BME280;5880;52.342;9.662;2023-02-20T12:28:45;101112.47;;;12.40;56.89
11648;BME280;5880;52.342;9.662;2023-02-20T12:31:56;101076.84;;;12.40;57.11
11648;BME280;5880;52.342;9.662;2023-02-20T12:38:16;101090.91;;;12.43;57.07
11648;BME280;5880;52.342;9.662;2023-02-20T12:46:57;101067.69;;;12.46;57.10
11648;BME280;5880;52.342;9.662;2023-02-20T12:49:53;101085.56;;;12.49;57.02
11648;BME280;5880;52.342;9.662;2023-02-20T12:56:07;101075.53;;;12.42;57.21
11648;BME280;5880;52.342;9.662;2023-02-20T13:01:26;101080.09;;;12.49;57.59
11648;BME280;5880;52.342;9.662;2023-02-20T13:09:14;101052.78;;;12.54;57.62
11648;BME280;5880;52.342;9.662;2023-02-20T13:11:45;101076.66;;;12.53;57.41
11648;BME280;5880;52.342;9.662;2023-02-20T13:17:07;101077.84;;;12.57;57.35
11648;BME280;5880;52.342;9.662;2023-02-20T13:19:57;101076.16;;;12.56;57.58
11648;BME280;5880;52.342;9.662;2023-02-20T13:22:25;101063.53;;;12.55;57.50
11648;BME280;5880;52.342;9.662;2023-02-20T13:24:51;101064.38;;;12.56;57.73
11648;BME280;5880;52.342;9.662;2023-02-20T13:27:31;101056.75;;;12.58;57.60
11648;BME280;5880;52.342;9.662;2023-02-20T13:30:17;101048.53;;;12.58;57.70
11648;BME280;5880;52.342;9.662;2023-02-20T13:32:44;101052.09;;;12.58;57.73
11648;BME280;5880;52.342;9.662;2023-02-20T13:35:33;101039.81;;;12.61;57.89
11648;BME280;5880;52.342;9.662;2023-02-20T13:38:18;101046.13;;;12.61;57.71
11648;BME280;5880;52.342;9.662;2023-02-20T13:41:05;101019.31;;;12.63;57.92
11648;BME280;5880;52.342;9.662;2023-02-20T13:43:36;101022.66;;;12.65;57.75
11648;BME280;5880;52.342;9.662;2023-02-20T13:48:38;101031.84;;;12.71;57.99
11648;BME280;5880;52.342;9.662;2023-02-20T13:53:43;101021.00;;;12.76;58.03
11648;BME280;5880;52.342;9.662;2023-02-20T13:56:25;101012.28;;;12.79;58.07
11648;BME280;5880;52.342;9.662;2023-02-20T13:58:56;101010.63;;;12.78;57.94
11648;BME280;5880;52.342;9.662;2023-02-20T14:01:23;101020.31;;;12.81;58.14
11648;BME280;5880;52.342;9.662;2023-02-20T14:04:04;101014.31;;;12.84;57.86
11648;BME280;5880;52.342;9.662;2023-02-20T14:06:30;101019.00;;;12.83;57.95
11648;BME280;5880;52.342;9.662;2023-02-20T14:09:17;101004.41;;;12.83;57.98
11648;BME280;5880;52.342;9.662;2023-02-20T14:11:43;101008.63;;;12.85;57.90
11648;BME280;5880;52.342;9.662;2023-02-20T14:14:24;101008.97;;;12.89;57.89
11648;BME280;5880;52.342;9.662;2023-02-20T14:16:52;101003.47;;;12.89;58.07
11648;BME280;5880;52.342;9.662;2023-02-20T14:19:28;101005.38;;;12.88;58.17
11648;BME280;5880;52.342;9.662;2023-02-20T14:21:54;101007.03;;;12.89;58.13
11648;BME280;5880;52.342;9.662;2023-02-20T14:24:28;101001.31;;;12.91;58.15
11648;BME280;5880;52.342;9.662;2023-02-20T14:26:55;101007.91;;;12.90;58.11
11648;BME280;5880;52.342;9.662;2023-02-20T14:29:27;101004.91;;;12.92;57.95
11648;BME280;5880;52.342;9.662;2023-02-20T14:31:55;100997.50;;;12.92;58.01
11648;BME280;5880;52.342;9.662;2023-02-20T14:34:52;101002.75;;;12.94;58.02
11648;BME280;5880;52.342;9.662;2023-02-20T14:40:28;100997.75;;;12.91;58.21